sensor_id;sensor_type;location;lat;lon;timestamp;pressure;altitude;pressure_sealevel;temperature;humidity
24160;BME280;62385;41.594;23.808;2023-01-30T00:02:11;95599.06;;;2.99;73.19
24160;BME280;62385;41.594;23.808;2023-01-30T00:04:36;95608.63;;;2.78;76.37
24160;BME280;62385;41.594;23.808;2023-01-30T00:07:02;95603.63;;;2.53;77.03
24160;BME280;62385;41.594;23.808;2023-01-30T00:09:27;95600.44;;;2.49;77.12
24160;BME280;62385;41.594;23.808;2023-01-30T00:11:54;95602.94;;;2.51;77.46
24160;BME280;62385;41.594;23.808;2023-01-30T00:14:20;95604.63;;;2.52;78.15
24160;BME280;62385;41.594;23.808;2023-01-30T00:16:46;95596.03;;;2.27;78.06
24160;BME280;62385;41.594;23.808;2023-01-30T00:19:11;95598.28;;;2.21;78.30
24160;BME280;62385;41.594;23.808;2023-01-30T00:21:37;95599.25;;;2.31;77.76
24160;BME280;62385;41.594;23.808;2023-01-30T00:24:03;95596.84;;;2.28;77.41
24160;BME280;62385;41.594;23.808;2023-01-30T00:26:29;95604.34;;;2.10;78.38
24160;BME280;62385;41.594;23.808;2023-01-30T00:28:54;95595.00;;;1.95;78.80
24160;BME280;62385;41.594;23.808;2023-01-30T00:31:21;95601.50;;;1.78;78.48
24160;BME280;62385;41.594;23.808;2023-01-30T00:33:48;95596.28;;;1.78;78.44
24160;BME280;62385;41.594;23.808;2023-01-30T00:36:14;95601.38;;;1.69;79.26
24160;BME280;62385;41.594;23.808;2023-01-30T00:38:40;95594.91;;;1.62;79.27
24160;BME280;62385;41.594;23.808;2023-01-30T00:41:06;95597.41;;;1.52;79.02
24160;BME280;62385;41.594;23.808;2023-01-30T00:43:31;95597.06;;;1.33;79.24
24160;BME280;62385;41.594;23.808;2023-01-30T00:49:05;95593.25;;;1.26;79.26
24160;BME280;62385;41.594;23.808;2023-01-30T00:51:31;95586.78;;;1.43;78.55
24160;BME280;62385;41.594;23.808;2023-01-30T00:53:57;95584.13;;;1.08;79.42
24160;BME280;62385;41.594;23.808;2023-01-30T00:56:23;95576.28;;;1.08;79.62
24160;BME280;62385;41.594;23.808;2023-01-30T00:58:49;95568.16;;;1.00;79.85
24160;BME280;62385;41.594;23.808;2023-01-30T01:01:14;95571.84;;;0.97;79.29
24160;BME280;62385;41.594;23.808;2023-01-30T01:03:41;95566.16;;;0.79;80.19
24160;BME280;62385;41.594;23.808;2023-01-30T01:06:07;95575.03;;;0.77;80.03
24160;BME280;62385;41.594;23.808;2023-01-30T01:08:33;95573.22;;;0.66;80.31
24160;BME280;62385;41.594;23.808;2023-01-30T01:11:00;95563.22;;;0.47;80.24
24160;BME280;62385;41.594;23.808;2023-01-30T01:13:26;95575.50;;;0.58;80.24
24160;BME280;62385;41.594;23.808;2023-01-30T01:15:51;95570.72;;;0.52;80.14
24160;BME280;62385;41.594;23.808;2023-01-30T01:18:17;95575.03;;;0.53;80.66
24160;BME280;62385;41.594;23.808;2023-01-30T01:20:44;95570.44;;;0.44;80.46
24160;BME280;62385;41.594;23.808;2023-01-30T01:23:10;95564.59;;;0.40;80.99
24160;BME280;62385;41.594;23.808;2023-01-30T01:25:36;95563.47;;;0.32;80.53
24160;BME280;62385;41.594;23.808;2023-01-30T01:28:02;95560.75;;;0.21;80.77
24160;BME280;62385;41.594;23.808;2023-01-30T01:30:27;95551.66;;;0.26;80.45
24160;BME280;62385;41.594;23.808;2023-01-30T01:32:55;95555.22;;;0.25;80.60
24160;BME280;62385;41.594;23.808;2023-01-30T01:35:21;95552.50;;;0.14;81.51
24160;BME280;62385;41.594;23.808;2023-01-30T01:37:47;95550.00;;;0.13;81.59
24160;BME280;62385;41.594;23.808;2023-01-30T01:40:18;95542.38;;;0.10;81.18
24160;BME280;62385;41.594;23.808;2023-01-30T01:43:13;95546.78;;;0.09;81.71
24160;BME280;62385;41.594;23.808;2023-01-30T01:45:40;95546.78;;;0.09;80.90
24160;BME280;62385;41.594;23.808;2023-01-30T01:48:11;95549.81;;;0.16;80.91
24160;BME280;62385;41.594;23.808;2023-01-30T01:50:45;95542.94;;;0.02;80.94
24160;BME280;62385;41.594;23.808;2023-01-30T01:53:14;95541.44;;;0.23;80.36
24160;BME280;62385;41.594;23.808;2023-01-30T01:55:42;95538.50;;;0.28;80.28
24160;BME280;62385;41.594;23.808;2023-01-30T01:58:16;95538.72;;;0.25;80.92
24160;BME280;62385;41.594;23.808;2023-01-30T02:00:45;95533.47;;;0.37;79.75
24160;BME280;62385;41.594;23.808;2023-01-30T02:03:17;95528.03;;;0.40;80.35
24160;BME280;62385;41.594;23.808;2023-01-30T02:05:47;95529.09;;;0.25;80.37
24160;BME280;62385;41.594;23.808;2023-01-30T02:08:27;95528.69;;;0.31;80.43
24160;BME280;62385;41.594;23.808;2023-01-30T02:11:02;95521.75;;;0.43;79.83
24160;BME280;62385;41.594;23.808;2023-01-30T02:13:30;95521.19;;;0.51;79.89
24160;BME280;62385;41.594;23.808;2023-01-30T02:16:00;95520.22;;;0.40;80.30
24160;BME280;62385;41.594;23.808;2023-01-30T02:18:27;95520.72;;;0.45;80.30
24160;BME280;62385;41.594;23.808;2023-01-30T02:21:02;95520.22;;;0.40;79.94
24160;BME280;62385;41.594;23.808;2023-01-30T02:32:43;95511.47;;;0.29;80.91
24160;BME280;62385;41.594;23.808;2023-01-30T02:41:00;95520.91;;;-0.07;81.17
24160;BME280;62385;41.594;23.808;2023-01-30T02:46:35;95518.91;;;-0.03;81.16
24160;BME280;62385;41.594;23.808;2023-01-30T02:49:22;95520.19;;;0.04;80.80
24160;BME280;62385;41.594;23.808;2023-01-30T02:51:50;95525.81;;;-0.15;81.65
24160;BME280;62385;41.594;23.808;2023-01-30T02:54:17;95527.28;;;-0.23;81.40
24160;BME280;62385;41.594;23.808;2023-01-30T02:56:49;95526.13;;;-0.19;81.72
24160;BME280;62385;41.594;23.808;2023-01-30T03:09:47;95512.16;;;-0.31;82.05
24160;BME280;62385;41.594;23.808;2023-01-30T03:13:21;95510.69;;;-0.35;81.98
24160;BME280;62385;41.594;23.808;2023-01-30T03:15:47;95521.66;;;-0.30;82.11
24160;BME280;62385;41.594;23.808;2023-01-30T03:18:16;95513.22;;;-0.21;81.60
24160;BME280;62385;41.594;23.808;2023-01-30T03:20:41;95503.91;;;-0.25;81.98
24160;BME280;62385;41.594;23.808;2023-01-30T03:23:07;95510.06;;;-0.13;81.38
24160;BME280;62385;41.594;23.808;2023-01-30T03:25:35;95503.81;;;-0.23;81.79
24160;BME280;62385;41.594;23.808;2023-01-30T03:28:02;95506.50;;;-0.12;81.40
24160;BME280;62385;41.594;23.808;2023-01-30T03:30:28;95496.16;;;0.12;81.28
24160;BME280;62385;41.594;23.808;2023-01-30T03:33:02;95494.84;;;0.30;80.85
24160;BME280;62385;41.594;23.808;2023-01-30T03:35:29;95505.75;;;0.47;80.21
24160;BME280;62385;41.594;23.808;2023-01-30T03:37:56;95509.28;;;0.23;80.55
24160;BME280;62385;41.594;23.808;2023-01-30T03:40:22;95509.69;;;0.17;81.65
24160;BME280;62385;41.594;23.808;2023-01-30T03:42:49;95512.63;;;0.25;80.56
24160;BME280;62385;41.594;23.808;2023-01-30T03:45:16;95510.72;;;0.27;81.33
24160;BME280;62385;41.594;23.808;2023-01-30T03:47:42;95509.53;;;0.07;81.34
24160;BME280;62385;41.594;23.808;2023-01-30T03:50:09;95510.06;;;-0.01;81.05
24160;BME280;62385;41.594;23.808;2023-01-30T03:52:35;95500.03;;;-0.07;81.16
24160;BME280;62385;41.594;23.808;2023-01-30T03:55:02;95509.75;;;-0.09;81.68
24160;BME280;62385;41.594;23.808;2023-01-30T03:57:28;95504.53;;;-0.09;81.54
24160;BME280;62385;41.594;23.808;2023-01-30T03:59:53;95501.94;;;-0.21;81.57
24160;BME280;62385;41.594;23.808;2023-01-30T04:02:19;95496.69;;;0.04;81.02
24160;BME280;62385;41.594;23.808;2023-01-30T04:04:48;95495.47;;;0.21;80.61
24160;BME280;62385;41.594;23.808;2023-01-30T04:07:14;95495.63;;;0.07;80.76
24160;BME280;62385;41.594;23.808;2023-01-30T04:09:41;95489.91;;;0.02;81.28
24160;BME280;62385;41.594;23.808;2023-01-30T04:12:06;95493.75;;;0.09;81.61
24160;BME280;62385;41.594;23.808;2023-01-30T04:14:39;95490.03;;;-0.13;81.60
24160;BME280;62385;41.594;23.808;2023-01-30T04:17:31;95487.00;;;-0.19;81.61
24160;BME280;62385;41.594;23.808;2023-01-30T04:19:57;95487.13;;;-0.21;81.84
24160;BME280;62385;41.594;23.808;2023-01-30T04:22:23;95481.25;;;-0.24;81.41
24160;BME280;62385;41.594;23.808;2023-01-30T04:24:48;95475.03;;;-0.22;80.80
24160;BME280;62385;41.594;23.808;2023-01-30T04:27:14;95480.88;;;-0.43;80.71
24160;BME280;62385;41.594;23.808;2023-01-30T04:29:55;95493.06;;;-0.44;81.69
24160;BME280;62385;41.594;23.808;2023-01-30T04:32:21;95491.41;;;-0.45;82.02
24160;BME280;62385;41.594;23.808;2023-01-30T04:34:46;95501.41;;;-0.39;82.02
24160;BME280;62385;41.594;23.808;2023-01-30T04:37:12;95493.59;;;-0.52;81.92
24160;BME280;62385;41.594;23.808;2023-01-30T04:39:38;95494.22;;;-0.35;81.05
24160;BME280;62385;41.594;23.808;2023-01-30T04:42:06;95496.41;;;-0.29;81.73
24160;BME280;62385;41.594;23.808;2023-01-30T04:44:39;95509.88;;;-0.48;81.51
24160;BME280;62385;41.594;23.808;2023-01-30T04:47:16;95498.38;;;-0.46;81.49
24160;BME280;62385;41.594;23.808;2023-01-30T04:49:42;95500.38;;;-0.49;82.02
24160;BME280;62385;41.594;23.808;2023-01-30T04:52:11;95501.19;;;-0.49;82.20
24160;BME280;62385;41.594;23.808;2023-01-30T04:54:37;95503.41;;;-0.42;82.13
24160;BME280;62385;41.594;23.808;2023-01-30T04:57:03;95500.78;;;-0.55;80.70
24160;BME280;62385;41.594;23.808;2023-01-30T04:59:32;95507.66;;;-0.67;81.45
24160;BME280;62385;41.594;23.808;2023-01-30T05:02:01;95503.69;;;-0.72;81.85
24160;BME280;62385;41.594;23.808;2023-01-30T05:04:27;95505.56;;;-0.62;82.16
24160;BME280;62385;41.594;23.808;2023-01-30T05:06:52;95502.97;;;-0.62;82.39
24160;BME280;62385;41.594;23.808;2023-01-30T05:09:18;95505.56;;;-0.49;81.65
24160;BME280;62385;41.594;23.808;2023-01-30T05:11:43;95505.16;;;-0.56;81.39
24160;BME280;62385;41.594;23.808;2023-01-30T05:14:09;95506.31;;;-0.60;81.88
24160;BME280;62385;41.594;23.808;2023-01-30T05:16:35;95505.78;;;-0.52;82.38
24160;BME280;62385;41.594;23.808;2023-01-30T05:19:00;95509.47;;;-0.42;82.59
24160;BME280;62385;41.594;23.808;2023-01-30T05:21:26;95510.38;;;-0.56;82.72
24160;BME280;62385;41.594;23.808;2023-01-30T05:23:54;95515.94;;;-0.87;82.45
24160;BME280;62385;41.594;23.808;2023-01-30T05:26:20;95512.34;;;-0.72;81.52
24160;BME280;62385;41.594;23.808;2023-01-30T05:28:50;95514.94;;;-0.84;81.34
24160;BME280;62385;41.594;23.808;2023-01-30T05:31:18;95515.19;;;-1.02;81.76
24160;BME280;62385;41.594;23.808;2023-01-30T05:33:46;95505.50;;;-1.12;82.03
24160;BME280;62385;41.594;23.808;2023-01-30T05:36:15;95515.88;;;-1.25;82.16
24160;BME280;62385;41.594;23.808;2023-01-30T05:38:42;95520.34;;;-1.27;82.04
24160;BME280;62385;41.594;23.808;2023-01-30T05:41:11;95513.03;;;-1.08;81.95
24160;BME280;62385;41.594;23.808;2023-01-30T05:43:36;95510.34;;;-0.81;81.00
24160;BME280;62385;41.594;23.808;2023-01-30T05:46:05;95514.41;;;-0.89;81.32
24160;BME280;62385;41.594;23.808;2023-01-30T05:48:32;95513.94;;;-1.09;81.67
24160;BME280;62385;41.594;23.808;2023-01-30T05:50:58;95517.69;;;-1.13;81.27
24160;BME280;62385;41.594;23.808;2023-01-30T05:53:27;95516.34;;;-1.06;81.71
24160;BME280;62385;41.594;23.808;2023-01-30T05:55:59;95511.72;;;-0.75;81.84
24160;BME280;62385;41.594;23.808;2023-01-30T05:58:26;95515.03;;;-0.73;80.95
24160;BME280;62385;41.594;23.808;2023-01-30T06:00:52;95513.50;;;-0.63;80.85
24160;BME280;62385;41.594;23.808;2023-01-30T06:03:18;95513.69;;;-0.79;81.19
24160;BME280;62385;41.594;23.808;2023-01-30T06:05:44;95517.88;;;-0.76;81.03
24160;BME280;62385;41.594;23.808;2023-01-30T06:08:11;95515.59;;;-0.43;80.56
24160;BME280;62385;41.594;23.808;2023-01-30T06:10:37;95511.31;;;-0.06;80.47
24160;BME280;62385;41.594;23.808;2023-01-30T06:13:03;95513.50;;;0.00;79.39
24160;BME280;62385;41.594;23.808;2023-01-30T06:15:29;95515.34;;;0.11;79.49
24160;BME280;62385;41.594;23.808;2023-01-30T06:17:55;95514.91;;;0.17;79.57
24160;BME280;62385;41.594;23.808;2023-01-30T06:20:21;95518.91;;;0.10;79.51
24160;BME280;62385;41.594;23.808;2023-01-30T06:22:47;95513.13;;;0.17;80.47
24160;BME280;62385;41.594;23.808;2023-01-30T06:25:13;95523.25;;;0.22;80.20
24160;BME280;62385;41.594;23.808;2023-01-30T06:27:39;95525.47;;;0.28;81.06
24160;BME280;62385;41.594;23.808;2023-01-30T06:30:05;95514.78;;;0.31;80.61
24160;BME280;62385;41.594;23.808;2023-01-30T06:32:31;95514.44;;;0.48;80.09
24160;BME280;62385;41.594;23.808;2023-01-30T06:34:56;95510.66;;;0.52;79.95
24160;BME280;62385;41.594;23.808;2023-01-30T06:37:22;95522.09;;;0.62;78.87
24160;BME280;62385;41.594;23.808;2023-01-30T06:39:48;95520.47;;;0.61;78.27
24160;BME280;62385;41.594;23.808;2023-01-30T06:42:13;95514.81;;;0.55;79.37
24160;BME280;62385;41.594;23.808;2023-01-30T06:44:39;95514.75;;;0.43;77.46
24160;BME280;62385;41.594;23.808;2023-01-30T06:47:04;95516.94;;;0.50;76.98
24160;BME280;62385;41.594;23.808;2023-01-30T06:49:30;95518.63;;;0.74;77.96
24160;BME280;62385;41.594;23.808;2023-01-30T06:51:55;95507.97;;;0.77;77.81
24160;BME280;62385;41.594;23.808;2023-01-30T06:54:21;95518.28;;;0.79;76.11
24160;BME280;62385;41.594;23.808;2023-01-30T06:56:47;95517.66;;;0.75;76.33
24160;BME280;62385;41.594;23.808;2023-01-30T06:59:12;95512.66;;;0.49;76.70
24160;BME280;62385;41.594;23.808;2023-01-30T07:01:38;95506.59;;;0.72;77.03
24160;BME280;62385;41.594;23.808;2023-01-30T07:04:04;95522.78;;;0.77;75.45
24160;BME280;62385;41.594;23.808;2023-01-30T07:06:31;95504.13;;;0.70;75.81
24160;BME280;62385;41.594;23.808;2023-01-30T07:08:56;95507.50;;;0.83;75.01
24160;BME280;62385;41.594;23.808;2023-01-30T07:11:24;95506.50;;;0.73;75.33
24160;BME280;62385;41.594;23.808;2023-01-30T07:13:49;95517.28;;;0.69;76.31
24160;BME280;62385;41.594;23.808;2023-01-30T07:16:15;95509.25;;;0.83;76.29
24160;BME280;62385;41.594;23.808;2023-01-30T07:18:40;95508.88;;;0.76;76.64
24160;BME280;62385;41.594;23.808;2023-01-30T07:21:07;95515.56;;;0.80;76.37
24160;BME280;62385;41.594;23.808;2023-01-30T07:23:33;95515.88;;;0.76;76.38
24160;BME280;62385;41.594;23.808;2023-01-30T07:26:02;95510.28;;;0.93;76.65
24160;BME280;62385;41.594;23.808;2023-01-30T07:28:28;95502.81;;;1.23;76.09
24160;BME280;62385;41.594;23.808;2023-01-30T07:30:58;95496.34;;;1.16;75.16
24160;BME280;62385;41.594;23.808;2023-01-30T07:33:24;95509.06;;;1.21;75.05
24160;BME280;62385;41.594;23.808;2023-01-30T07:35:50;95508.41;;;1.41;75.41
24160;BME280;62385;41.594;23.808;2023-01-30T07:38:16;95501.72;;;1.61;74.93
24160;BME280;62385;41.594;23.808;2023-01-30T07:40:43;95493.19;;;1.35;74.15
24160;BME280;62385;41.594;23.808;2023-01-30T07:43:12;95502.56;;;1.72;74.05
24160;BME280;62385;41.594;23.808;2023-01-30T07:45:43;95506.13;;;1.82;74.03
24160;BME280;62385;41.594;23.808;2023-01-30T07:48:11;95498.53;;;2.02;73.55
24160;BME280;62385;41.594;23.808;2023-01-30T07:50:38;95500.19;;;2.14;73.37
24160;BME280;62385;41.594;23.808;2023-01-30T07:53:05;95505.91;;;2.19;73.33
24160;BME280;62385;41.594;23.808;2023-01-30T07:55:31;95503.75;;;2.35;73.78
24160;BME280;62385;41.594;23.808;2023-01-30T07:57:57;95496.84;;;2.34;75.50
24160;BME280;62385;41.594;23.808;2023-01-30T08:00:22;95491.03;;;2.30;75.72
24160;BME280;62385;41.594;23.808;2023-01-30T08:02:48;95489.72;;;2.25;74.64
24160;BME280;62385;41.594;23.808;2023-01-30T08:05:14;95498.53;;;2.13;75.33
24160;BME280;62385;41.594;23.808;2023-01-30T08:07:39;95489.59;;;2.15;74.64
24160;BME280;62385;41.594;23.808;2023-01-30T08:10:05;95487.09;;;2.25;74.73
24160;BME280;62385;41.594;23.808;2023-01-30T08:12:32;95488.75;;;2.37;74.72
24160;BME280;62385;41.594;23.808;2023-01-30T08:14:58;95483.50;;;2.48;75.02
24160;BME280;62385;41.594;23.808;2023-01-30T08:17:24;95490.31;;;2.40;72.76
24160;BME280;62385;41.594;23.808;2023-01-30T08:19:49;95488.03;;;2.46;73.82
24160;BME280;62385;41.594;23.808;2023-01-30T08:22:15;95485.41;;;2.46;73.56
24160;BME280;62385;41.594;23.808;2023-01-30T08:24:41;95486.41;;;2.66;74.05
24160;BME280;62385;41.594;23.808;2023-01-30T08:27:07;95486.09;;;2.59;73.68
24160;BME280;62385;41.594;23.808;2023-01-30T08:29:32;95481.31;;;2.64;71.69
24160;BME280;62385;41.594;23.808;2023-01-30T08:31:59;95473.25;;;2.56;71.66
24160;BME280;62385;41.594;23.808;2023-01-30T08:34:25;95482.09;;;2.44;72.07
24160;BME280;62385;41.594;23.808;2023-01-30T08:36:50;95483.94;;;2.64;72.84
24160;BME280;62385;41.594;23.808;2023-01-30T08:39:16;95475.47;;;2.72;70.68
24160;BME280;62385;41.594;23.808;2023-01-30T08:41:42;95477.09;;;2.84;72.28
24160;BME280;62385;41.594;23.808;2023-01-30T08:44:11;95470.84;;;2.96;71.68
24160;BME280;62385;41.594;23.808;2023-01-30T08:46:38;95475.81;;;3.10;71.38
24160;BME280;62385;41.594;23.808;2023-01-30T08:49:04;95467.47;;;3.05;71.54
24160;BME280;62385;41.594;23.808;2023-01-30T08:51:30;95459.22;;;2.78;69.66
24160;BME280;62385;41.594;23.808;2023-01-30T08:53:55;95466.72;;;2.83;71.30
24160;BME280;62385;41.594;23.808;2023-01-30T08:56:21;95457.16;;;2.93;70.66
24160;BME280;62385;41.594;23.808;2023-01-30T08:58:46;95463.56;;;3.00;67.97
24160;BME280;62385;41.594;23.808;2023-01-30T09:01:14;95461.50;;;3.03;68.45
24160;BME280;62385;41.594;23.808;2023-01-30T09:03:40;95451.03;;;3.24;67.65
24160;BME280;62385;41.594;23.808;2023-01-30T09:06:06;95446.19;;;3.40;68.02
24160;BME280;62385;41.594;23.808;2023-01-30T09:08:33;95449.72;;;3.30;68.53
24160;BME280;62385;41.594;23.808;2023-01-30T09:11:01;95440.94;;;3.40;68.50
24160;BME280;62385;41.594;23.808;2023-01-30T09:13:27;95440.16;;;3.08;67.65
24160;BME280;62385;41.594;23.808;2023-01-30T09:15:52;95433.97;;;3.30;68.41
24160;BME280;62385;41.594;23.808;2023-01-30T09:18:18;95427.81;;;3.19;66.14
24160;BME280;62385;41.594;23.808;2023-01-30T09:20:43;95419.31;;;3.48;66.22
24160;BME280;62385;41.594;23.808;2023-01-30T09:23:09;95421.09;;;3.47;65.36
24160;BME280;62385;41.594;23.808;2023-01-30T09:25:35;95422.47;;;3.72;66.09
24160;BME280;62385;41.594;23.808;2023-01-30T09:28:00;95416.63;;;3.38;64.70
24160;BME280;62385;41.594;23.808;2023-01-30T09:30:26;95414.88;;;3.48;64.58
24160;BME280;62385;41.594;23.808;2023-01-30T09:32:51;95421.19;;;3.66;64.48
24160;BME280;62385;41.594;23.808;2023-01-30T09:35:17;95410.66;;;3.87;65.17
24160;BME280;62385;41.594;23.808;2023-01-30T09:37:50;95400.75;;;4.00;62.72
24160;BME280;62385;41.594;23.808;2023-01-30T09:40:21;95407.59;;;3.52;63.82
24160;BME280;62385;41.594;23.808;2023-01-30T09:43:07;95411.00;;;3.73;62.39
24160;BME280;62385;41.594;23.808;2023-01-30T09:48:14;95397.47;;;3.78;63.96
24160;BME280;62385;41.594;23.808;2023-01-30T09:53:33;95390.03;;;4.23;62.77
24160;BME280;62385;41.594;23.808;2023-01-30T09:56:01;95374.72;;;4.37;61.69
24160;BME280;62385;41.594;23.808;2023-01-30T09:58:40;95374.72;;;4.37;61.41
24160;BME280;62385;41.594;23.808;2023-01-30T10:01:15;95371.16;;;4.57;65.02
24160;BME280;62385;41.594;23.808;2023-01-30T10:03:59;95361.44;;;4.48;65.73
24160;BME280;62385;41.594;23.808;2023-01-30T10:06:28;95365.88;;;4.57;65.40
24160;BME280;62385;41.594;23.808;2023-01-30T10:28:21;95319.66;;;4.84;61.52
24160;BME280;62385;41.594;23.808;2023-01-30T10:30:50;95316.59;;;5.07;63.20
24160;BME280;62385;41.594;23.808;2023-01-30T10:33:19;95311.75;;;5.03;60.98
24160;BME280;62385;41.594;23.808;2023-01-30T10:35:56;95305.94;;;4.90;61.18
24160;BME280;62385;41.594;23.808;2023-01-30T10:38:39;95292.53;;;4.74;60.73
24160;BME280;62385;41.594;23.808;2023-01-30T10:41:23;95282.72;;;4.76;60.56
24160;BME280;62385;41.594;23.808;2023-01-30T10:44:10;95276.22;;;4.70;58.51
24160;BME280;62385;41.594;23.808;2023-01-30T10:49:43;95265.59;;;5.18;57.29
24160;BME280;62385;41.594;23.808;2023-01-30T11:00:23;95250.59;;;5.28;58.59
24160;BME280;62385;41.594;23.808;2023-01-30T11:02:58;95246.94;;;5.39;57.88
24160;BME280;62385;41.594;23.808;2023-01-30T11:05:32;95236.91;;;5.79;58.88
24160;BME280;62385;41.594;23.808;2023-01-30T11:08:10;95231.34;;;5.55;55.89
24160;BME280;62385;41.594;23.808;2023-01-30T11:10:42;95230.13;;;5.77;55.95
24160;BME280;62385;41.594;23.808;2023-01-30T11:13:27;95220.72;;;5.47;57.73
24160;BME280;62385;41.594;23.808;2023-01-30T11:16:03;95209.28;;;5.66;57.31
24160;BME280;62385;41.594;23.808;2023-01-30T11:18:29;95205.31;;;5.52;58.63
24160;BME280;62385;41.594;23.808;2023-01-30T11:21:07;95211.28;;;5.72;58.17
24160;BME280;62385;41.594;23.808;2023-01-30T11:23:41;95201.72;;;5.53;59.31
24160;BME280;62385;41.594;23.808;2023-01-30T11:26:29;95191.94;;;5.45;57.83
24160;BME280;62385;41.594;23.808;2023-01-30T11:28:57;95187.06;;;5.50;59.12
24160;BME280;62385;41.594;23.808;2023-01-30T11:31:28;95180.34;;;5.56;58.75
24160;BME280;62385;41.594;23.808;2023-01-30T11:34:04;95178.50;;;5.66;58.46
24160;BME280;62385;41.594;23.808;2023-01-30T11:36:34;95181.50;;;5.53;59.49
24160;BME280;62385;41.594;23.808;2023-01-30T11:39:27;95177.50;;;5.49;59.40
24160;BME280;62385;41.594;23.808;2023-01-30T11:41:57;95165.47;;;5.20;58.41
24160;BME280;62385;41.594;23.808;2023-01-30T11:44:34;95165.38;;;5.56;58.48
24160;BME280;62385;41.594;23.808;2023-01-30T11:47:03;95159.44;;;5.72;57.85
24160;BME280;62385;41.594;23.808;2023-01-30T11:49:37;95144.56;;;5.81;58.69
24160;BME280;62385;41.594;23.808;2023-01-30T11:52:04;95153.00;;;5.84;56.79
24160;BME280;62385;41.594;23.808;2023-01-30T11:54:36;95150.19;;;5.50;57.96
24160;BME280;62385;41.594;23.808;2023-01-30T11:57:06;95151.38;;;5.56;58.71
24160;BME280;62385;41.594;23.808;2023-01-30T12:04:33;95128.16;;;5.69;55.67
24160;BME280;62385;41.594;23.808;2023-01-30T12:07:15;95125.66;;;5.68;57.07
24160;BME280;62385;41.594;23.808;2023-01-30T12:09:41;95132.09;;;5.83;57.29
24160;BME280;62385;41.594;23.808;2023-01-30T12:14:53;95119.88;;;5.46;55.78
24160;BME280;62385;41.594;23.808;2023-01-30T12:17:33;95118.28;;;5.36;54.41
24160;BME280;62385;41.594;23.808;2023-01-30T12:20:22;95100.69;;;5.54;53.59
24160;BME280;62385;41.594;23.808;2023-01-30T12:25:22;95098.63;;;5.30;53.37
24160;BME280;62385;41.594;23.808;2023-01-30T12:28:22;95089.84;;;4.94;51.94
24160;BME280;62385;41.594;23.808;2023-01-30T12:30:54;95089.22;;;4.83;53.64
24160;BME280;62385;41.594;23.808;2023-01-30T12:33:25;95091.38;;;4.97;53.49
24160;BME280;62385;41.594;23.808;2023-01-30T12:36:15;95086.97;;;5.15;52.63
24160;BME280;62385;41.594;23.808;2023-01-30T12:49:50;95083.72;;;5.03;53.78
24160;BME280;62385;41.594;23.808;2023-01-30T12:55:17;95077.19;;;5.07;54.12
24160;BME280;62385;41.594;23.808;2023-01-30T12:57:53;95071.47;;;4.85;53.94
24160;BME280;62385;41.594;23.808;2023-01-30T13:03:25;95067.63;;;5.06;53.16
24160;BME280;62385;41.594;23.808;2023-01-30T13:14:30;95057.09;;;5.06;54.87
24160;BME280;62385;41.594;23.808;2023-01-30T13:22:37;95041.41;;;4.97;54.76
24160;BME280;62385;41.594;23.808;2023-01-30T13:25:18;95042.09;;;5.17;54.18
24160;BME280;62385;41.594;23.808;2023-01-30T13:27:56;95041.47;;;5.05;55.61
24160;BME280;62385;41.594;23.808;2023-01-30T13:30:24;95039.19;;;4.92;54.46
24160;BME280;62385;41.594;23.808;2023-01-30T13:32:54;95026.81;;;5.02;54.59
24160;BME280;62385;41.594;23.808;2023-01-30T13:37:51;95034.06;;;5.53;54.59
24160;BME280;62385;41.594;23.808;2023-01-30T13:40:22;95033.00;;;5.46;54.01
24160;BME280;62385;41.594;23.808;2023-01-30T13:42:57;95031.34;;;5.28;55.93
24160;BME280;62385;41.594;23.808;2023-01-30T13:45:32;95026.66;;;5.39;54.67
24160;BME280;62385;41.594;23.808;2023-01-30T13:56:42;95023.22;;;5.39;55.00
24160;BME280;62385;41.594;23.808;2023-01-30T14:02:22;95015.84;;;5.25;55.93
24160;BME280;62385;41.594;23.808;2023-01-30T14:10:32;95012.97;;;5.18;57.25
24160;BME280;62385;41.594;23.808;2023-01-30T14:13:04;95006.38;;;5.14;56.86
24160;BME280;62385;41.594;23.808;2023-01-30T14:15:31;95011.50;;;5.16;56.96
24160;BME280;62385;41.594;23.808;2023-01-30T14:20:27;95010.91;;;5.22;56.19
24160;BME280;62385;41.594;23.808;2023-01-30T14:22:59;95007.09;;;4.89;56.99
24160;BME280;62385;41.594;23.808;2023-01-30T14:25:46;95011.63;;;5.14;57.32
24160;BME280;62385;41.594;23.808;2023-01-30T14:51:44;94996.28;;;4.64;58.71
24160;BME280;62385;41.594;23.808;2023-01-30T14:56:52;94994.94;;;4.60;58.96
24160;BME280;62385;41.594;23.808;2023-01-30T14:59:34;94995.13;;;4.49;59.03
24160;BME280;62385;41.594;23.808;2023-01-30T15:21:08;94991.84;;;3.54;64.10
24160;BME280;62385;41.594;23.808;2023-01-30T15:32:12;95009.25;;;3.36;59.94
24160;BME280;62385;41.594;23.808;2023-01-30T15:34:51;95011.19;;;3.34;60.74
24160;BME280;62385;41.594;23.808;2023-01-30T15:45:18;95013.38;;;2.91;60.72
24160;BME280;62385;41.594;23.808;2023-01-30T15:50:26;95010.88;;;2.79;61.13
24160;BME280;62385;41.594;23.808;2023-01-30T15:52:52;95017.94;;;3.08;60.98
24160;BME280;62385;41.594;23.808;2023-01-30T15:55:33;95022.22;;;2.99;60.69
24160;BME280;62385;41.594;23.808;2023-01-30T15:58:06;95028.75;;;2.55;62.42
24160;BME280;62385;41.594;23.808;2023-01-30T16:00:43;95025.75;;;2.69;59.98
24160;BME280;62385;41.594;23.808;2023-01-30T16:03:14;95023.72;;;2.83;60.94
24160;BME280;62385;41.594;23.808;2023-01-30T16:05:50;95023.59;;;3.03;60.11
24160;BME280;62385;41.594;23.808;2023-01-30T16:08:25;95027.34;;;3.01;61.81
24160;BME280;62385;41.594;23.808;2023-01-30T16:10:51;95023.75;;;3.11;61.31
24160;BME280;62385;41.594;23.808;2023-01-30T16:13:18;95017.13;;;2.98;61.57
24160;BME280;62385;41.594;23.808;2023-01-30T16:16:09;95020.00;;;2.85;60.42
24160;BME280;62385;41.594;23.808;2023-01-30T16:18:51;95021.66;;;2.86;60.50
24160;BME280;62385;41.594;23.808;2023-01-30T16:21:33;95008.69;;;2.85;59.13
24160;BME280;62385;41.594;23.808;2023-01-30T16:24:14;95022.06;;;2.82;60.73
24160;BME280;62385;41.594;23.808;2023-01-30T16:26:46;95009.50;;;2.75;61.58